Time;durP1;ratioP1;P1;durP2;ratioP2;P2;SDS_P1;SDS_P2;PMS_P1;PMS_P2;Temp;Humidity;BMP_temperature;BMP_pressure;BME280_temperature;BME280_humidity;BME280_pressure;Samples;Min_cycle;Max_cycle;Signal;HPM_P1;HPM_P2
2022/04/24 00:00:09;;;;;;;15.27;13.43;;;14.70;99.90;;;;;;5036093;28;20636;-83
2022/04/24 00:02:35;;;;;;;16.87;13.27;;;14.60;99.90;;;;;;5035072;28;20181;-83
2022/04/24 00:05:02;;;;;;;14.83;13.00;;;14.70;71.50;;;;;;5035364;28;20166;-81
2022/04/24 00:07:29;;;;;;;16.10;14.07;;;14.50;99.90;;;;;;5036070;28;20224;-83
2022/04/24 00:09:54;;;;;;;16.27;13.27;;;14.50;99.90;;;;;;5035591;28;20170;-83
2022/04/24 00:12:20;;;;;;;14.90;13.03;;;14.50;99.90;;;;;;5051397;28;20261;-83
2022/04/24 00:14:47;;;;;;;15.80;13.37;;;14.50;99.90;;;;;;5075416;28;20197;-84
2022/04/24 00:17:15;;;;;;;13.63;11.80;;;14.40;99.90;;;;;;5073983;28;20278;-82
2022/04/24 00:19:41;;;;;;;14.47;12.37;;;14.40;43.60;;;;;;5073828;28;20186;-83
2022/04/24 00:22:06;;;;;;;14.23;11.77;;;14.40;25.20;;;;;;5073956;28;20177;-82
2022/04/24 00:24:32;;;;;;;12.50;10.40;;;14.50;1.00;;;;;;5075111;28;20192;-82
2022/04/24 00:26:59;;;;;;;13.07;11.33;;;14.40;99.90;;;;;;5073260;28;20189;-83
2022/04/24 00:29:25;;;;;;;13.27;11.27;;;14.50;1.00;;;;;;5073867;28;20173;-82
2022/04/24 00:31:51;;;;;;;12.73;10.80;;;14.50;99.90;;;;;;5074779;28;20544;-82
2022/04/24 00:34:17;;;;;;;13.07;11.03;;;14.50;99.90;;;;;;5086890;28;20189;-81
2022/04/24 00:36:44;;;;;;;12.37;10.20;;;14.40;99.90;;;;;;5085723;28;20292;-82
2022/04/24 00:39:10;;;;;;;11.73;10.40;;;14.40;1.00;;;;;;5084305;28;20181;-81
2022/04/24 00:41:46;;;;;;;11.90;10.17;;;14.50;1.00;;;;;;5076070;28;20165;-83
2022/04/24 00:44:12;;;;;;;11.03;9.70;;;14.40;1.00;;;;;;5034609;28;20614;-83
2022/04/24 00:46:40;;;;;;;12.67;9.63;;;14.40;1.00;;;;;;5033265;28;20172;-82
2022/04/24 00:49:07;;;;;;;13.37;10.50;;;14.40;95.40;;;;;;5034479;28;20191;-82
2022/04/24 00:51:33;;;;;;;11.57;9.33;;;14.40;1.00;;;;;;5034694;28;20241;-81
2022/04/24 00:53:59;;;;;;;10.33;9.13;;;14.40;1.00;;;;;;5033394;28;20175;-83
2022/04/24 00:56:30;;;;;;;10.13;8.53;;;14.50;1.00;;;;;;5033944;28;20597;-84
2022/04/24 00:58:58;;;;;;;10.13;9.03;;;14.40;99.90;;;;;;5034800;28;20210;-81
2022/04/24 01:01:24;;;;;;;10.60;8.53;;;14.40;99.90;;;;;;5033055;28;20171;-81
2022/04/24 01:03:51;;;;;;;9.80;8.80;;;14.40;99.90;;;;;;5033614;28;20236;-82
2022/04/24 01:06:17;;;;;;;9.27;8.17;;;14.30;99.90;;;;;;5040753;28;20209;-81
2022/04/24 01:08:42;;;;;;;9.63;8.60;;;14.30;1.00;;;;;;5049767;28;20185;-82
2022/04/24 01:11:08;;;;;;;9.57;8.53;;;14.30;99.90;;;;;;5047238;28;20244;-82
2022/04/24 01:13:33;;;;;;;9.93;7.87;;;14.40;99.90;;;;;;5061434;28;20173;-81
2022/04/24 01:15:59;;;;;;;8.53;7.17;;;14.30;1.00;;;;;;5069441;28;20206;-83
2022/04/24 01:18:30;;;;;;;13.47;7.47;;;14.30;99.90;;;;;;5056039;28;20200;-82
2022/04/24 01:20:56;;;;;;;9.40;7.30;;;14.30;99.90;;;;;;5053404;28;20169;-83
2022/04/24 01:23:21;;;;;;;8.60;7.10;;;14.20;99.90;;;;;;5056503;28;20177;-83
2022/04/24 01:25:47;;;;;;;8.30;6.60;;;14.20;1.00;;;;;;5063354;28;20162;-79
2022/04/24 01:28:12;;;;;;;9.33;6.77;;;14.20;99.90;;;;;;5068084;28;20170;-82
2022/04/24 01:30:38;;;;;;;7.77;6.50;;;14.20;99.90;;;;;;5060527;28;20575;-82
2022/04/24 01:33:04;;;;;;;8.93;6.80;;;14.10;1.00;;;;;;5058575;28;20172;-83
2022/04/24 01:35:30;;;;;;;7.87;7.03;;;14.10;1.00;;;;;;5060659;28;20270;-82
2022/04/24 01:37:58;;;;;;;10.60;7.47;;;14.10;99.90;;;;;;5071156;28;20199;-81
2022/04/24 01:40:24;;;;;;;8.03;6.50;;;14.10;1.00;;;;;;5066648;28;20268;-81
2022/04/24 01:42:51;;;;;;;8.13;6.53;;;14.00;1.00;;;;;;5079635;28;20192;-83
2022/04/24 01:45:17;;;;;;;9.27;6.57;;;14.00;99.20;;;;;;5091394;28;20581;-82
2022/04/24 01:47:43;;;;;;;7.50;6.40;;;14.00;99.90;;;;;;5082773;28;20231;-82
2022/04/24 01:50:11;;;;;;;8.83;6.37;;;14.00;99.90;;;;;;5074470;28;20172;-81
2022/04/24 01:52:37;;;;;;;7.27;6.53;;;14.10;99.90;;;;;;5073802;28;20509;-82
2022/04/24 01:55:03;;;;;;;7.30;6.30;;;13.90;99.90;;;;;;5072585;28;20187;-82
2022/04/24 01:57:31;;;;;;;6.60;5.77;;;13.90;99.90;;;;;;5073751;28;20213;-82
2022/04/24 01:59:57;;;;;;;8.07;6.10;;;13.90;1.00;;;;;;5073677;28;20307;-82
2022/04/24 02:02:23;;;;;;;7.97;5.93;;;13.80;99.90;;;;;;5072843;28;20243;-82
2022/04/24 02:04:49;;;;;;;8.67;6.00;;;13.80;99.90;;;;;;5073383;28;20169;-82
2022/04/24 02:07:15;;;;;;;9.27;6.20;;;13.70;99.90;;;;;;5073148;28;20187;-81
2022/04/24 02:09:40;;;;;;;9.23;6.57;;;13.70;1.00;;;;;;5073062;28;20586;-83
2022/04/24 02:12:07;;;;;;;7.43;5.90;;;13.70;1.00;;;;;;5071619;28;20204;-82
2022/04/24 02:14:32;;;;;;;7.90;5.57;;;13.70;1.00;;;;;;5052032;28;20177;-82
2022/04/24 02:16:59;;;;;;;8.37;6.00;;;13.70;9.70;;;;;;5052896;28;20681;-83
2022/04/24 02:19:25;;;;;;;7.87;5.87;;;13.60;1.00;;;;;;5053113;28;20205;-83
2022/04/24 02:21:50;;;;;;;7.77;5.70;;;13.60;99.90;;;;;;5054379;28;20527;-83
2022/04/24 02:24:16;;;;;;;7.13;5.77;;;13.50;99.90;;;;;;5057683;28;20633;-83
2022/04/24 02:26:42;;;;;;;7.60;5.53;;;13.50;99.90;;;;;;5056443;28;20629;-82
2022/04/24 02:29:07;;;;;;;6.57;5.70;;;13.50;1.00;;;;;;5057510;28;20233;-81
2022/04/24 02:31:33;;;;;;;9.27;6.07;;;13.40;1.00;;;;;;5055654;28;20219;-82
2022/04/24 02:33:59;;;;;;;8.33;5.90;;;13.40;1.00;;;;;;5054970;28;20181;-83
2022/04/24 02:36:24;;;;;;;6.50;5.50;;;13.30;99.90;;;;;;5056768;28;20236;-82
2022/04/24 02:38:50;;;;;;;7.57;5.80;;;13.30;1.00;;;;;;5055527;28;20193;-81
2022/04/24 02:41:16;;;;;;;7.60;5.57;;;13.30;99.90;;;;;;5055621;28;20542;-83
2022/04/24 02:43:42;;;;;;;8.23;5.50;;;13.20;1.00;;;;;;5067195;28;20173;-82
2022/04/24 02:46:07;;;;;;;7.50;5.73;;;13.20;1.00;;;;;;5076451;28;20175;-82
2022/04/24 02:48:33;;;;;;;8.47;5.83;;;13.20;1.00;;;;;;5075394;28;20514;-82
2022/04/24 02:50:59;;;;;;;9.97;5.30;;;13.20;1.00;;;;;;5076607;28;20181;-83
2022/04/24 02:53:24;;;;;;;9.47;5.70;;;13.10;1.00;;;;;;5093160;28;20211;-82
2022/04/24 02:55:50;;;;;;;6.70;5.30;;;13.30;1.00;;;;;;5096266;28;20199;-82
2022/04/24 02:58:16;;;;;;;9.27;5.40;;;13.10;99.90;;;;;;5087503;28;20168;-82
2022/04/24 03:00:49;;;;;;;6.37;5.53;;;13.00;1.00;;;;;;5080718;28;20200;-82
2022/04/24 03:03:18;;;;;;;8.70;5.53;;;13.00;1.00;;;;;;5075503;28;20176;-82
2022/04/24 03:05:48;;;;;;;5.77;5.17;;;12.90;1.00;;;;;;5075259;28;20176;-81
2022/04/24 03:08:15;;;;;;;6.03;5.17;;;12.90;99.90;;;;;;5075142;28;20172;-82
2022/04/24 03:10:41;;;;;;;5.83;4.47;;;12.90;99.90;;;;;;5074387;28;20552;-80
2022/04/24 03:13:06;;;;;;;7.50;5.57;;;12.80;99.90;;;;;;5063771;28;20177;-80
2022/04/24 03:15:32;;;;;;;8.27;6.00;;;12.80;99.90;;;;;;5034492;28;20643;-82
2022/04/24 03:17:58;;;;;;;6.10;5.03;;;12.70;99.90;;;;;;5034969;28;20220;-82
2022/04/24 03:20:23;;;;;;;7.00;5.53;;;12.80;24.90;;;;;;5035149;28;20544;-83
2022/04/24 03:22:50;;;;;;;6.43;5.50;;;12.80;1.00;;;;;;5036908;28;20177;-82
2022/04/24 03:25:16;;;;;;;5.97;5.20;;;12.70;99.90;;;;;;5034683;28;20170;-81
2022/04/24 03:27:41;;;;;;;9.00;5.27;;;12.60;99.90;;;;;;5034256;28;20185;-81
2022/04/24 03:30:09;;;;;;;6.07;4.90;;;12.60;1.00;;;;;;5034242;28;20170;-82
2022/04/24 03:32:35;;;;;;;6.17;5.10;;;12.60;1.00;;;;;;5034607;28;20236;-82
2022/04/24 03:35:03;;;;;;;6.53;5.60;;;12.50;1.00;;;;;;5033675;28;20181;-81
2022/04/24 03:37:29;;;;;;;5.70;5.03;;;12.40;99.90;;;;;;5034711;28;20205;-81
2022/04/24 03:39:56;;;;;;;6.57;5.50;;;12.50;99.90;;;;;;5035144;28;20186;-82
2022/04/24 03:42:22;;;;;;;5.90;5.30;;;12.40;99.90;;;;;;5041594;28;20174;-81
2022/04/24 03:44:47;;;;;;;6.70;5.43;;;12.40;1.00;;;;;;5076494;28;20299;-82
2022/04/24 03:47:14;;;;;;;6.30;5.07;;;12.40;1.00;;;;;;5062709;28;20558;-81
2022/04/24 03:49:43;;;;;;;7.43;5.10;;;12.40;1.00;;;;;;5056249;28;20299;-82
2022/04/24 03:52:12;;;;;;;6.30;5.07;;;12.50;1.00;;;;;;5055195;28;20177;-80
2022/04/24 03:54:38;;;;;;;5.17;4.60;;;12.30;1.00;;;;;;5057181;28;20169;-80
2022/04/24 03:57:04;;;;;;;6.73;4.93;;;12.50;1.00;;;;;;5037765;28;20201;-80
2022/04/24 03:59:30;;;;;;;8.20;5.60;;;12.30;1.00;;;;;;5053765;28;20192;-80
2022/04/24 04:01:56;;;;;;;6.97;5.70;;;12.30;1.00;;;;;;5072453;28;20185;-82
2022/04/24 04:04:22;;;;;;;5.87;5.00;;;12.30;1.00;;;;;;5073286;28;20188;-83
2022/04/24 04:06:47;;;;;;;5.93;5.33;;;12.30;1.00;;;;;;5060665;28;20177;-81
2022/04/24 04:09:13;;;;;;;6.77;5.13;;;12.30;1.00;;;;;;5054708;28;20210;-82
2022/04/24 04:11:39;;;;;;;7.27;5.63;;;12.50;33.60;;;;;;5055247;28;20177;-81
2022/04/24 04:14:05;;;;;;;6.40;5.30;;;12.40;68.90;;;;;;5044123;28;20182;-80
2022/04/24 04:16:31;;;;;;;6.07;5.47;;;12.30;23.70;;;;;;5033548;28;20283;-81
2022/04/24 04:18:57;;;;;;;7.17;5.77;;;12.30;66.50;;;;;;5034808;28;20221;-81
2022/04/24 04:21:22;;;;;;;6.13;5.53;;;12.30;97.50;;;;;;5034947;28;20680;-82
2022/04/24 04:23:48;;;;;;;6.77;5.57;;;12.30;99.90;;;;;;5034731;28;20604;-81
2022/04/24 04:26:17;;;;;;;6.20;5.60;;;12.20;99.90;;;;;;5033081;28;20653;-82
2022/04/24 04:28:44;;;;;;;6.47;5.27;;;12.20;99.90;;;;;;5034601;28;20176;-82
2022/04/24 04:31:10;;;;;;;6.23;5.40;;;12.40;99.90;;;;;;5044585;28;20170;-81
2022/04/24 04:33:36;;;;;;;5.83;5.33;;;12.30;99.90;;;;;;5054659;28;20193;-81
2022/04/24 04:36:05;;;;;;;6.40;5.60;;;12.30;99.90;;;;;;5036927;28;20194;-81
2022/04/24 04:38:31;;;;;;;7.23;6.20;;;12.20;99.90;;;;;;5035162;28;20184;-81
2022/04/24 04:40:56;;;;;;;7.33;5.93;;;12.20;99.90;;;;;;5034456;28;20173;-81
2022/04/24 04:43:24;;;;;;;6.63;5.37;;;12.30;99.90;;;;;;5037853;28;20191;-81
2022/04/24 04:45:50;;;;;;;6.93;5.83;;;12.20;99.90;;;;;;5055154;28;20177;-81
2022/04/24 04:48:16;;;;;;;8.13;5.70;;;12.20;99.90;;;;;;5054665;28;20228;-80
2022/04/24 04:50:41;;;;;;;6.87;6.17;;;12.20;99.90;;;;;;5054668;28;20652;-81
2022/04/24 04:53:07;;;;;;;6.50;5.30;;;12.20;99.90;;;;;;5054261;28;20165;-81
2022/04/24 04:55:32;;;;;;;6.10;5.30;;;12.20;59.10;;;;;;5053008;28;20177;-82
2022/04/24 04:57:58;;;;;;;6.40;5.63;;;12.20;47.60;;;;;;5052078;28;20691;-81
2022/04/24 05:00:24;;;;;;;6.37;5.73;;;12.20;99.90;;;;;;5055513;28;20195;-81
2022/04/24 05:02:50;;;;;;;6.77;5.90;;;12.10;99.90;;;;;;5057659;28;20173;-82
2022/04/24 05:05:16;;;;;;;6.53;5.43;;;12.10;99.90;;;;;;5057302;28;20656;-81
2022/04/24 05:07:41;;;;;;;6.20;5.60;;;12.10;99.90;;;;;;5057650;28;20173;-80
2022/04/24 05:10:08;;;;;;;6.40;5.80;;;12.10;99.90;;;;;;5054340;28;20149;-81
2022/04/24 05:12:33;;;;;;;6.63;6.03;;;12.20;99.90;;;;;;5052907;28;20222;-81
2022/04/24 05:15:07;;;;;;;6.30;5.70;;;12.10;99.90;;;;;;5054356;28;20185;-81
2022/04/24 05:17:34;;;;;;;7.07;6.33;;;12.20;99.90;;;;;;5056923;28;20219;-81
2022/04/24 05:20:01;;;;;;;7.43;5.90;;;12.10;99.90;;;;;;5056738;28;20299;-81
2022/04/24 05:22:26;;;;;;;7.40;6.10;;;12.10;99.90;;;;;;5054952;28;20169;-81
2022/04/24 05:24:52;;;;;;;6.67;5.97;;;12.10;99.90;;;;;;5052338;28;20647;-81
2022/04/24 05:27:19;;;;;;;7.27;6.17;;;12.20;99.90;;;;;;5053628;28;20176;-82
2022/04/24 05:29:45;;;;;;;6.50;5.80;;;12.10;99.90;;;;;;5052815;28;20183;-81
2022/04/24 05:32:11;;;;;;;7.23;5.97;;;12.20;99.90;;;;;;5052322;28;20215;-81
2022/04/24 05:34:37;;;;;;;7.27;6.43;;;12.30;22.60;;;;;;5052701;28;20169;-82
2022/04/24 05:37:04;;;;;;;7.87;7.07;;;12.30;1.00;;;;;;5052082;28;20209;-81
2022/04/24 05:39:30;;;;;;;6.90;6.20;;;12.30;1.00;;;;;;5052205;28;20260;-82
2022/04/24 05:41:56;;;;;;;6.87;6.17;;;12.40;1.00;;;;;;5053444;28;20169;-82
2022/04/24 05:44:22;;;;;;;7.03;6.33;;;12.30;1.00;;;;;;5053265;28;20224;-83
2022/04/24 05:46:47;;;;;;;7.57;6.67;;;12.20;1.00;;;;;;5052351;28;20653;-82
2022/04/24 05:49:13;;;;;;;7.77;5.97;;;12.20;99.90;;;;;;5052532;28;20640;-81
2022/04/24 05:51:40;;;;;;;6.83;6.13;;;12.20;99.90;;;;;;5051933;28;20654;-82
2022/04/24 05:54:05;;;;;;;10.13;6.80;;;12.20;1.00;;;;;;5051650;28;20181;-81
2022/04/24 05:56:31;;;;;;;6.60;5.80;;;12.30;1.00;;;;;;5051559;28;20201;-82
2022/04/24 05:58:57;;;;;;;9.57;6.50;;;12.40;1.00;;;;;;5051901;28;20199;-82
2022/04/24 06:01:22;;;;;;;8.20;7.03;;;12.20;1.00;;;;;;5064096;28;20175;-81
2022/04/24 06:03:48;;;;;;;6.97;6.27;;;12.10;41.30;;;;;;5071403;28;20206;-81
2022/04/24 06:06:14;;;;;;;7.60;6.60;;;12.10;1.00;;;;;;5051338;28;20185;-81
2022/04/24 06:08:40;;;;;;;7.30;6.60;;;12.10;1.00;;;;;;5043640;28;20229;-80
2022/04/24 06:11:05;;;;;;;9.37;6.40;;;12.20;1.00;;;;;;5054459;28;20257;-82
2022/04/24 06:13:39;;;;;;;7.33;6.63;;;12.20;1.00;;;;;;5036379;28;20631;-81
2022/04/24 06:16:05;;;;;;;7.97;7.17;;;12.20;1.00;;;;;;5035173;28;20158;-83
2022/04/24 06:18:40;;;;;;;8.20;7.40;;;12.20;1.00;;;;;;5036412;28;20249;-80
2022/04/24 06:21:06;;;;;;;7.73;6.93;;;12.30;1.00;;;;;;5032690;28;20181;-81
2022/04/24 06:23:31;;;;;;;7.80;6.60;;;12.20;1.00;;;;;;5033064;28;20170;-82
2022/04/24 06:25:58;;;;;;;8.23;7.33;;;12.20;1.00;;;;;;5033213;28;20560;-83
2022/04/24 06:28:25;;;;;;;8.03;7.20;;;12.20;1.00;;;;;;5031806;28;20177;-83
2022/04/24 06:30:50;;;;;;;7.93;6.80;;;12.30;1.00;;;;;;5032660;28;20224;-82
2022/04/24 06:33:17;;;;;;;7.87;7.07;;;12.20;1.00;;;;;;5034403;28;20634;-83
2022/04/24 06:35:45;;;;;;;7.73;6.93;;;12.10;1.00;;;;;;5046771;28;20165;-82
2022/04/24 06:38:11;;;;;;;7.80;7.00;;;12.10;27.30;;;;;;5043703;28;20197;-82
2022/04/24 06:40:37;;;;;;;9.43;7.40;;;12.40;1.00;;;;;;5047247;28;20182;-81
2022/04/24 06:43:04;;;;;;;8.33;7.53;;;12.30;1.00;;;;;;5050376;28;20201;-82
2022/04/24 06:45:35;;;;;;;8.07;7.27;;;12.40;1.00;;;;;;5055831;28;20177;-81
2022/04/24 06:48:04;;;;;;;10.33;7.27;;;12.40;99.90;;;;;;5053881;28;20182;-83
2022/04/24 06:50:31;;;;;;;9.03;7.30;;;12.30;1.00;;;;;;5050076;28;20630;-80
2022/04/24 06:53:05;;;;;;;8.73;7.60;;;12.30;1.00;;;;;;5043967;28;20260;-81
2022/04/24 06:55:33;;;;;;;8.33;7.40;;;12.30;1.00;;;;;;5052732;28;20233;-82
2022/04/24 06:58:00;;;;;;;8.10;7.30;;;12.40;1.00;;;;;;5052574;28;20209;-81
2022/04/24 07:00:28;;;;;;;9.70;8.00;;;12.50;1.00;;;;;;5051286;28;20191;-83
2022/04/24 07:02:54;;;;;;;9.40;8.40;;;12.60;1.00;;;;;;5051897;28;20185;-81
2022/04/24 07:05:21;;;;;;;8.37;7.47;;;12.50;99.90;;;;;;5052598;28;20168;-81
2022/04/24 07:07:48;;;;;;;8.90;7.97;;;12.60;99.90;;;;;;5052068;28;20184;-80
2022/04/24 07:10:14;;;;;;;8.27;7.47;;;12.60;99.90;;;;;;5055364;28;20201;-82
2022/04/24 07:12:53;;;;;;;8.87;7.97;;;12.60;99.90;;;;;;5057365;28;20244;-81
2022/04/24 07:15:21;;;;;;;9.60;8.40;;;12.60;99.90;;;;;;5056728;28;20184;-82
2022/04/24 07:17:49;;;;;;;8.77;7.87;;;12.70;99.90;;;;;;5074841;28;20575;-81
2022/04/24 07:20:16;;;;;;;8.93;7.30;;;12.70;1.00;;;;;;5076699;28;20187;-81
2022/04/24 07:22:43;;;;;;;8.50;7.70;;;12.80;99.90;;;;;;5069413;28;20177;-82
2022/04/24 07:25:09;;;;;;;10.77;8.20;;;12.80;99.90;;;;;;5054710;28;20169;-81
2022/04/24 07:27:35;;;;;;;9.03;8.17;;;12.70;1.00;;;;;;5040245;28;20192;-80
2022/04/24 07:30:00;;;;;;;13.00;9.23;;;12.60;66.10;;;;;;5036801;28;20229;-81
2022/04/24 07:32:26;;;;;;;8.83;8.03;;;12.70;1.00;;;;;;5039329;28;20177;-81
2022/04/24 07:34:51;;;;;;;9.03;8.00;;;12.90;99.90;;;;;;5043698;28;20180;-83
2022/04/24 07:37:17;;;;;;;10.57;9.03;;;13.00;99.90;;;;;;5054205;28;20201;-83
2022/04/24 07:39:43;;;;;;;9.10;8.07;;;13.20;99.90;;;;;;5051543;28;20249;-80
2022/04/24 07:42:09;;;;;;;8.73;7.93;;;13.40;1.00;;;;;;5053563;28;20185;-85
2022/04/24 07:44:35;;;;;;;9.27;7.73;;;13.30;1.00;;;;;;5055406;28;20161;-82
2022/04/24 07:47:01;;;;;;;9.60;8.10;;;13.60;1.00;;;;;;5072828;28;20170;-81
2022/04/24 07:49:29;;;;;;;9.67;8.67;;;13.20;1.00;;;;;;5058734;28;20260;-83
2022/04/24 07:51:57;;;;;;;9.73;8.73;;;13.30;99.90;;;;;;5056349;28;20549;-83
2022/04/24 07:54:23;;;;;;;9.50;8.60;;;13.40;99.90;;;;;;5048033;28;20172;-82
2022/04/24 07:56:48;;;;;;;9.57;8.43;;;13.30;1.00;;;;;;5054606;28;20809;-82
2022/04/24 07:59:14;;;;;;;9.63;8.50;;;13.30;99.90;;;;;;5057225;28;20196;-82
2022/04/24 08:01:40;;;;;;;10.63;9.30;;;13.30;99.90;;;;;;5047401;28;20212;-81
2022/04/24 08:04:06;;;;;;;9.87;8.87;;;13.40;1.00;;;;;;5055260;28;20184;-84
2022/04/24 08:06:31;;;;;;;10.23;9.23;;;13.60;99.90;;;;;;5056325;28;20260;-83
2022/04/24 08:08:57;;;;;;;8.87;7.57;;;13.60;1.00;;;;;;5055899;28;20252;-83
2022/04/24 08:11:22;;;;;;;9.43;8.10;;;13.60;1.00;;;;;;5055812;28;20181;-82
2022/04/24 08:13:49;;;;;;;9.63;8.60;;;13.50;99.90;;;;;;5055219;28;20528;-83
2022/04/24 08:16:15;;;;;;;10.47;8.63;;;13.50;99.90;;;;;;5055998;28;20189;-83
2022/04/24 08:18:40;;;;;;;9.83;8.63;;;13.50;1.00;;;;;;5055741;28;20196;-83
2022/04/24 08:21:06;;;;;;;9.80;8.80;;;13.60;50.50;;;;;;5054932;28;20181;-82
2022/04/24 08:23:35;;;;;;;9.67;8.80;;;13.60;99.90;;;;;;5060423;28;20158;-82
2022/04/24 08:26:00;;;;;;;9.47;8.30;;;13.70;1.00;;;;;;5065421;28;20149;-84
2022/04/24 08:28:26;;;;;;;10.03;9.03;;;13.70;53.50;;;;;;5062338;28;20164;-82
2022/04/24 08:30:52;;;;;;;9.50;8.50;;;13.70;1.00;;;;;;5062527;28;20169;-82
2022/04/24 08:33:17;;;;;;;9.70;8.67;;;13.60;99.90;;;;;;5060135;28;20190;-81
2022/04/24 08:35:45;;;;;;;9.30;8.27;;;13.70;1.00;;;;;;5058424;28;20525;-85
2022/04/24 08:38:11;;;;;;;9.77;8.87;;;13.90;99.90;;;;;;5060674;28;20216;-83
2022/04/24 08:40:36;;;;;;;10.43;8.57;;;13.90;99.90;;;;;;5059603;28;20173;-81
2022/04/24 08:43:03;;;;;;;9.07;8.20;;;14.10;1.00;;;;;;5058086;28;20188;-81
2022/04/24 08:45:30;;;;;;;9.43;8.43;;;14.30;1.00;;;;;;5062852;28;20200;-82
2022/04/24 08:47:57;;;;;;;9.33;8.40;;;14.10;1.00;;;;;;5059728;28;20180;-82
2022/04/24 08:50:27;;;;;;;9.53;8.60;;;14.00;99.90;;;;;;5059309;28;20184;-83
2022/04/24 08:52:55;;;;;;;10.80;8.53;;;14.00;99.90;;;;;;5075659;28;20153;-83
2022/04/24 08:55:24;;;;;;;9.97;8.97;;;13.90;1.00;;;;;;5064862;28;20189;-83
2022/04/24 08:57:51;;;;;;;9.13;7.97;;;14.10;99.90;;;;;;5056517;28;20209;-81
2022/04/24 09:00:19;;;;;;;10.30;7.93;;;14.20;99.90;;;;;;5056318;28;20259;-84
2022/04/24 09:02:49;;;;;;;9.50;8.43;;;14.10;1.00;;;;;;5053937;28;20546;-81
2022/04/24 09:05:15;;;;;;;9.50;8.60;;;14.30;1.00;;;;;;5056929;28;20232;-81
2022/04/24 09:07:43;;;;;;;11.03;9.03;;;14.40;99.90;;;;;;5056787;28;20197;-82
2022/04/24 09:10:13;;;;;;;9.40;8.50;;;14.50;1.00;;;;;;5065058;28;20256;-82
2022/04/24 09:12:40;;;;;;;9.93;8.50;;;14.60;1.00;;;;;;5074354;28;20170;-82
2022/04/24 09:15:07;;;;;;;9.50;8.40;;;14.80;1.00;;;;;;5061638;28;20538;-82
2022/04/24 09:17:35;;;;;;;10.70;8.87;;;14.70;99.90;;;;;;5057875;28;20208;-82
2022/04/24 09:20:14;;;;;;;11.27;8.33;;;14.80;1.00;;;;;;5060022;28;20182;-81
2022/04/24 09:22:40;;;;;;;9.70;8.70;;;15.00;1.00;;;;;;5064236;28;20170;-83
2022/04/24 09:25:47;;;;;;;9.20;8.30;;;15.10;1.00;;;;;;5067055;28;20177;-83
2022/04/24 09:28:13;;;;;;;9.67;8.67;;;15.00;99.90;;;;;;5059503;28;20166;-81
2022/04/24 09:30:49;;;;;;;10.10;8.00;;;15.00;99.90;;;;;;5055656;28;20272;-82
2022/04/24 09:33:18;;;;;;;9.93;8.93;;;15.10;1.00;;;;;;5039986;28;20254;-82
2022/04/24 09:35:53;;;;;;;9.53;8.53;;;15.10;99.90;;;;;;5039401;28;20647;-82
2022/04/24 09:38:20;;;;;;;10.83;8.83;;;15.30;99.90;;;;;;5039329;28;20240;-81
2022/04/24 09:40:50;;;;;;;10.60;9.50;;;15.40;39.10;;;;;;5044466;28;20172;-82
2022/04/24 09:43:18;;;;;;;8.80;7.90;;;15.30;1.00;;;;;;5057125;28;20200;-82
2022/04/24 09:45:53;;;;;;;10.53;8.70;;;15.30;1.00;;;;;;5066140;28;20188;-80
2022/04/24 09:48:20;;;;;;;8.73;7.80;;;15.50;3.40;;;;;;5076128;28;20231;-82
2022/04/24 09:50:49;;;;;;;12.20;8.50;;;15.50;99.90;;;;;;5075276;28;20159;-79
2022/04/24 09:53:19;;;;;;;8.23;7.43;;;15.30;99.90;;;;;;5070665;28;20180;-81
2022/04/24 09:55:45;;;;;;;11.37;7.87;;;15.50;99.90;;;;;;5072674;28;20168;-80
2022/04/24 09:58:13;;;;;;;9.20;7.63;;;15.70;99.90;;;;;;5072418;28;20241;-79
2022/04/24 10:00:39;;;;;;;9.97;8.97;;;15.70;1.00;;;;;;5068527;28;20219;-79
2022/04/24 10:03:05;;;;;;;9.67;8.20;;;15.80;99.90;;;;;;5061861;28;20175;-82
2022/04/24 10:05:31;;;;;;;8.30;7.50;;;15.90;1.00;;;;;;5059940;28;20165;-83
2022/04/24 10:07:57;;;;;;;9.00;7.97;;;15.90;99.90;;;;;;5056724;28;20278;-82
2022/04/24 10:10:23;;;;;;;12.50;9.90;;;15.50;99.90;;;;;;5055558;28;20629;-83
2022/04/24 10:12:53;;;;;;;14.20;12.13;;;15.90;99.90;;;;;;5051511;28;20169;-83
2022/04/24 10:15:23;;;;;;;24.07;16.70;;;16.10;99.90;;;;;;5055258;28;20161;-84
2022/04/24 10:18:16;;;;;;;15.27;11.27;;;16.30;99.90;;;;;;5053991;28;20295;-83
2022/04/24 10:21:16;;;;;;;11.20;9.17;;;16.50;21.20;;;;;;5053463;28;20641;-81
2022/04/24 10:23:41;;;;;;;13.27;8.53;;;16.50;99.90;;;;;;5056020;28;20245;-83
2022/04/24 10:26:21;;;;;;;10.23;8.67;;;16.40;1.00;;;;;;5055698;28;20592;-84
2022/04/24 10:28:48;;;;;;;8.47;7.57;;;16.30;1.00;;;;;;5054465;28;20169;-82
2022/04/24 10:31:16;;;;;;;10.73;8.97;;;16.40;99.90;;;;;;5056192;28;20606;-81
2022/04/24 10:33:52;;;;;;;9.87;7.27;;;16.60;99.90;;;;;;5054428;28;20302;-81
2022/04/24 10:36:18;;;;;;;13.27;10.73;;;16.60;99.90;;;;;;5056431;28;20668;-82
2022/04/24 10:39:00;;;;;;;8.57;7.50;;;16.60;99.90;;;;;;5055634;28;20173;-82
2022/04/24 10:41:29;;;;;;;8.00;6.23;;;16.60;99.90;;;;;;5055356;28;20173;-81
2022/04/24 10:44:09;;;;;;;7.73;6.63;;;16.80;1.00;;;;;;5056115;28;20179;-82
2022/04/24 10:46:39;;;;;;;7.60;6.77;;;16.70;1.00;;;;;;5066151;28;20660;-80
2022/04/24 10:49:10;;;;;;;6.93;6.23;;;16.80;1.00;;;;;;5066144;28;20172;-82
2022/04/24 10:51:38;;;;;;;8.17;7.27;;;16.80;1.00;;;;;;5065733;28;20161;-80
2022/04/24 10:54:08;;;;;;;9.17;7.30;;;16.70;1.00;;;;;;5062247;28;20192;-84
2022/04/24 10:56:36;;;;;;;7.20;6.50;;;16.80;1.00;;;;;;5067842;28;20226;-82
2022/04/24 10:59:10;;;;;;;9.37;6.63;;;17.10;1.00;;;;;;5075313;28;20688;-83
2022/04/24 11:01:37;;;;;;;8.67;5.90;;;17.40;1.00;;;;;;5063846;28;20728;-82
2022/04/24 11:04:08;;;;;;;7.30;6.63;;;17.40;99.90;;;;;;5059707;28;20214;-81
2022/04/24 11:06:35;;;;;;;7.60;6.80;;;17.20;99.90;;;;;;5058597;28;20180;-83
2022/04/24 11:09:30;;;;;;;8.97;7.13;;;17.30;99.90;;;;;;5060475;28;20169;-82
2022/04/24 11:12:01;;;;;;;11.60;7.27;;;17.50;99.90;;;;;;5057892;28;20691;-82
2022/04/24 11:14:28;;;;;;;6.80;6.10;;;17.80;99.90;;;;;;5059693;28;20174;-83
2022/04/24 11:16:58;;;;;;;7.57;6.33;;;17.90;99.90;;;;;;5059171;28;20354;-82
2022/04/24 11:19:28;;;;;;;7.53;6.73;;;17.90;99.90;;;;;;5057507;28;20252;-83
2022/04/24 11:22:05;;;;;;;7.93;7.13;;;17.90;99.90;;;;;;5058397;28;20249;-83
2022/04/24 11:24:33;;;;;;;7.13;6.53;;;18.00;99.90;;;;;;5055649;28;20177;-83
2022/04/24 11:27:11;;;;;;;6.87;5.87;;;17.80;99.90;;;;;;5067544;28;20229;-82
2022/04/24 11:29:37;;;;;;;8.63;6.83;;;17.90;99.90;;;;;;5077261;28;20174;-80
2022/04/24 11:32:07;;;;;;;7.10;6.40;;;17.60;99.90;;;;;;5064720;28;20626;-82
2022/04/24 11:34:37;;;;;;;6.33;5.70;;;17.60;99.90;;;;;;5058883;28;20587;-82
2022/04/24 11:37:05;;;;;;;8.83;6.13;;;17.70;99.90;;;;;;5057070;28;20227;-81
2022/04/24 11:39:32;;;;;;;6.13;5.53;;;17.80;99.90;;;;;;5057079;28;20184;-81
2022/04/24 11:42:00;;;;;;;9.47;6.10;;;17.70;94.40;;;;;;5058857;28;20722;-84
2022/04/24 11:50:14;;;;;;;6.40;5.63;;;18.20;51.60;;;;;;5068821;28;20526;-82
2022/04/24 11:52:49;;;;;;;6.30;5.43;;;18.20;35.70;;;;;;5062269;28;20185;-85
2022/04/24 11:55:21;;;;;;;7.63;6.40;;;18.30;18.30;;;;;;5054430;28;20192;-82
2022/04/24 11:57:59;;;;;;;8.67;5.20;;;18.40;21.00;;;;;;5055996;28;20209;-83
2022/04/24 12:00:38;;;;;;;7.10;5.67;;;18.40;1.00;;;;;;5057242;28;20652;-84
2022/04/24 12:03:06;;;;;;;6.70;5.77;;;18.30;1.00;;;;;;5057162;28;20173;-82
2022/04/24 12:05:38;;;;;;;7.60;5.30;;;18.40;1.00;;;;;;5058388;28;20180;-81
2022/04/24 12:08:05;;;;;;;6.20;5.60;;;18.60;1.00;;;;;;5062795;28;20173;-84
2022/04/24 12:10:31;;;;;;;5.33;4.73;;;18.50;1.00;;;;;;5063079;28;20161;-84
2022/04/24 12:13:06;;;;;;;6.97;5.10;;;18.60;1.00;;;;;;5063142;28;20193;-83
2022/04/24 12:15:32;;;;;;;5.77;5.17;;;18.50;1.00;;;;;;5044009;28;20200;-82
2022/04/24 12:17:59;;;;;;;5.70;5.10;;;18.70;1.00;;;;;;5058483;28;20246;-81
2022/04/24 12:20:38;;;;;;;7.97;4.30;;;18.80;1.00;;;;;;5058817;28;20208;-82
2022/04/24 12:23:15;;;;;;;5.70;5.03;;;18.80;1.00;;;;;;5060990;28;20177;-81
2022/04/24 12:25:58;;;;;;;6.87;5.30;;;18.60;1.00;;;;;;5057561;28;20200;-83
2022/04/24 12:28:35;;;;;;;6.97;5.07;;;18.70;1.00;;;;;;5058268;28;20265;-83
2022/04/24 12:31:02;;;;;;;6.60;4.80;;;18.70;1.00;;;;;;5036879;28;20209;-83
2022/04/24 12:33:30;;;;;;;8.97;6.37;;;18.90;1.00;;;;;;5041204;28;20150;-81
2022/04/24 12:36:09;;;;;;;8.27;5.20;;;18.90;1.00;;;;;;5069929;28;20195;-81
2022/04/24 12:38:34;;;;;;;6.23;4.70;;;19.00;1.00;;;;;;5053880;28;20177;-83
2022/04/24 12:41:00;;;;;;;5.03;4.53;;;19.00;1.00;;;;;;5055341;28;20157;-82
2022/04/24 12:43:27;;;;;;;8.87;5.10;;;19.00;1.00;;;;;;5053382;28;20242;-82
2022/04/24 12:45:57;;;;;;;7.07;5.03;;;19.00;1.00;;;;;;5045301;28;20283;-81
2022/04/24 12:48:24;;;;;;;5.60;4.90;;;19.20;1.00;;;;;;5074282;28;20172;-83
2022/04/24 12:50:51;;;;;;;5.43;4.53;;;19.00;1.00;;;;;;5064920;28;20670;-81
2022/04/24 12:53:22;;;;;;;5.40;4.90;;;19.00;1.00;;;;;;5054006;28;20184;-82
2022/04/24 12:55:50;;;;;;;7.07;4.57;;;19.10;1.00;;;;;;5050747;28;20179;-85